Time;durP1;ratioP1;P1;durP2;ratioP2;P2;SDS_P1;SDS_P2;PMS_P1;PMS_P2;Temp;Humidity;BMP_temperature;BMP_pressure;BME280_temperature;BME280_humidity;BME280_pressure;Samples;Min_cycle;Max_cycle;Signal;HPM_P1;HPM_P2
2022/04/13 00:00:27;;;;;;;;;;;;;;;;;;5055343;28;19948;-49
2022/04/13 00:02:53;;;;;;;;;;;18.70;90.40;;;;;;5055095;28;19921;-48
2022/04/13 00:05:19;;;;;;;;;;;;;;;;;;5055265;28;19920;-48
2022/04/13 00:07:44;;;;;;;;;;;18.80;90.40;;;;;;5055283;28;19954;-47
2022/04/13 00:10:10;;;;;;;;;;;18.80;89.40;;;;;;5055269;28;19908;-48
2022/04/13 00:12:36;;;;;;;;;;;;;;;;;;5055280;28;19909;-48
2022/04/13 00:15:02;;;;;;;;;;;;;;;;;;5055167;28;19916;-47
2022/04/13 00:17:28;;;;;;;;;;;;;;;;;;5055108;28;19909;-48
2022/04/13 00:19:54;;;;;;;;;;;;;;;;;;5055333;28;20031;-47
2022/04/13 00:22:20;;;;;;;;;;;;;;;;;;5054982;28;20371;-48
2022/04/13 00:24:45;;;;;;;;;;;;;;;;;;5054858;28;19917;-47
2022/04/13 00:27:11;;;;;;;;;;;;;;;;;;5054920;28;19909;-48
2022/04/13 00:29:37;;;;;;;;;;;;;;;;;;5055210;28;20295;-48
2022/04/13 00:32:03;;;;;;;;;;;18.80;90.40;;;;;;5054814;28;19913;-47
2022/04/13 00:34:30;;;;;;;;;;;;;;;;;;5054298;28;20146;-49
2022/04/13 00:36:57;;;;;;;;;;;;;;;;;;5054716;28;19909;-49
2022/04/13 00:39:23;;;;;;;;;;;18.70;90.40;;;;;;5054695;28;19923;-48
2022/04/13 00:41:55;;;;;;;;;;;18.70;90.50;;;;;;5054684;28;20012;-48
2022/04/13 00:44:20;;;;;;;;;;;;;;;;;;5054566;28;19962;-48
2022/04/13 00:46:46;;;;;;;;;;;18.70;90.40;;;;;;5054652;28;20007;-47
2022/04/13 00:49:12;;;;;;;;;;;;;;;;;;5054582;28;19909;-48
2022/04/13 00:51:38;;;;;;;;;;;;;;;;;;5054448;28;20505;-47
2022/04/13 00:54:03;;;;;;;;;;;;;;;;;;5054471;28;19913;-46
2022/04/13 00:56:29;;;;;;;;;;;;;;;;;;5054368;28;19915;-47
2022/04/13 00:58:55;;;;;;;;;;;;;;;;;;5054435;28;19909;-47
2022/04/13 01:01:22;;;;;;;;;;;18.70;90.50;;;;;;5054229;28;19909;-47
2022/04/13 01:03:50;;;;;;;;;;;18.70;89.20;;;;;;5054074;28;19920;-48
2022/04/13 01:06:16;;;;;;;;;;;;;;;;;;5054183;28;19950;-48
2022/04/13 01:08:42;;;;;;;;;;;18.60;88.60;;;;;;5054207;28;19909;-48
2022/04/13 01:11:08;;;;;;;;;;;18.70;90.40;;;;;;5054157;28;20446;-49
2022/04/13 01:13:38;;;;;;;;;;;;;;;;;;5054107;28;19952;-48
2022/04/13 01:16:04;;;;;;;;;;;;;;;;;;5054028;28;19909;-48
2022/04/13 01:18:30;;;;;;;;;;;18.70;89.10;;;;;;5054007;28;19915;-49
2022/04/13 01:20:57;;;;;;;;;;;;;;;;;;5036080;28;19999;-49
2022/04/13 01:23:23;;;;;;;;;;;18.60;90.40;;;;;;5054057;28;19970;-48
2022/04/13 01:25:52;;;;;;;;;;;18.70;90.40;;;;;;5054499;28;19909;-47
2022/04/13 01:28:18;;;;;;;;;;;;;;;;;;5053656;28;19916;-48
2022/04/13 01:30:43;;;;;;;;;;;;;;;;;;5053960;28;19913;-47
2022/04/13 01:33:09;;;;;;;;;;;;;;;;;;5053676;28;19916;-47
2022/04/13 01:35:35;;;;;;;;;;;;;;;;;;5053617;28;19909;-48
2022/04/13 01:38:01;;;;;;;;;;;;;;;;;;5053588;28;19978;-48
2022/04/13 01:40:27;;;;;;;;;;;;;;;;;;5053740;28;19909;-48
2022/04/13 01:42:52;;;;;;;;;;;18.60;90.30;;;;;;5053432;28;19994;-48
2022/04/13 01:45:21;;;;;;;;;;;18.60;90.40;;;;;;5052581;28;19909;-48
2022/04/13 01:47:48;;;;;;;;;;;18.60;90.30;;;;;;5053226;28;19909;-48
2022/04/13 01:50:14;;;;;;;;;;;;;;;;;;5053634;28;19943;-48
2022/04/13 01:52:39;;;;;;;;;;;;;;;;;;5053513;28;19912;-49
2022/04/13 01:55:05;;;;;;;;;;;;;;;;;;5053312;28;19924;-47
2022/04/13 01:57:31;;;;;;;;;;;;;;;;;;5053210;28;19932;-48
2022/04/13 01:59:59;;;;;;;;;;;19.00;88.70;;;;;;5053220;28;19909;-48
2022/04/13 02:02:24;;;;;;;;;;;18.60;90.30;;;;;;5053033;28;19928;-47
2022/04/13 02:04:50;;;;;;;;;;;;;;;;;;5052972;28;19929;-49
2022/04/13 02:07:16;;;;;;;;;;;18.60;87.70;;;;;;5053054;28;19909;-48
2022/04/13 02:09:41;;;;;;;;;;;;;;;;;;5052949;28;20298;-48
2022/04/13 02:12:07;;;;;;;;;;;;;;;;;;5052964;28;19963;-47
2022/04/13 02:14:33;;;;;;;;;;;;;;;;;;5052865;28;19917;-48
2022/04/13 02:16:59;;;;;;;;;;;18.60;90.30;;;;;;5052890;28;19916;-47
2022/04/13 02:19:25;;;;;;;;;;;;;;;;;;5053225;28;20347;-48
2022/04/13 02:21:50;;;;;;;;;;;18.70;90.40;;;;;;5052788;28;20289;-47
2022/04/13 02:24:16;;;;;;;;;;;18.50;87.10;;;;;;5052653;28;19924;-48
2022/04/13 02:26:41;;;;;;;;;;;;;;;;;;5052684;28;19915;-48
2022/04/13 02:29:07;;;;;;;;;;;;;;;;;;5052621;28;19912;-48
2022/04/13 02:31:33;;;;;;;;;;;18.60;90.40;;;;;;5052662;28;20469;-49
2022/04/13 02:33:58;;;;;;;;;;;18.50;89.60;;;;;;5052552;28;19913;-49
2022/04/13 02:36:24;;;;;;;;;;;18.60;88.40;;;;;;5052613;28;19908;-48
2022/04/13 02:38:50;;;;;;;;;;;;;;;;;;5052554;28;19954;-48
2022/04/13 02:41:16;;;;;;;;;;;;;;;;;;5052561;28;19909;-47
2022/04/13 02:43:42;;;;;;;;;;;;;;;;;;5052691;28;19917;-48
2022/04/13 02:46:08;;;;;;;;;;;;;;;;;;5052766;28;19987;-47
2022/04/13 02:48:34;;;;;;;;;;;;;;;;;;5052399;28;19916;-48
2022/04/13 02:50:59;;;;;;;;;;;;;;;;;;5052358;28;19931;-48
2022/04/13 02:53:26;;;;;;;;;;;;;;;;;;5052355;28;20007;-48
2022/04/13 02:55:52;;;;;;;;;;;;;;;;;;5052605;28;19916;-49
2022/04/13 02:58:18;;;;;;;;;;;;;;;;;;5051973;28;19909;-49
2022/04/13 03:00:43;;;;;;;;;;;;;;;;;;5052331;28;19951;-47
2022/04/13 03:03:09;;;;;;;;;;;;;;;;;;5052056;28;20323;-49
2022/04/13 03:05:37;;;;;;;;;;;;;;;;;;5052565;28;20163;-48
2022/04/13 03:08:03;;;;;;;;;;;;;;;;;;5052435;28;19912;-49
2022/04/13 03:10:28;;;;;;;;;;;18.40;90.40;;;;;;5052240;28;19916;-49
2022/04/13 03:12:54;;;;;;;;;;;;;;;;;;5052146;28;19915;-49
2022/04/13 03:15:22;;;;;;;;;;;;;;;;;;5052262;28;20402;-48
2022/04/13 03:17:48;;;;;;;;;;;;;;;;;;5052164;28;19916;-48
2022/04/13 03:20:14;;;;;;;;;;;18.50;88.50;;;;;;5052136;28;19995;-49
2022/04/13 03:22:39;;;;;;;;;;;;;;;;;;5052180;28;20004;-50
2022/04/13 03:25:05;;;;;;;;;;;;;;;;;;5051996;28;19917;-48
2022/04/13 03:27:31;;;;;;;;;;;;;;;;;;5052065;28;19913;-48
2022/04/13 03:29:57;;;;;;;;;;;;;;;;;;5052006;28;20382;-49
2022/04/13 03:32:23;;;;;;;;;;;;;;;;;;5051997;28;20000;-48
2022/04/13 03:34:48;;;;;;;;;;;18.50;89.20;;;;;;5051993;28;19912;-47
2022/04/13 03:37:14;;;;;;;;;;;18.50;87.80;;;;;;5051944;28;20067;-48
2022/04/13 03:39:40;;;;;;;;;;;;;;;;;;5051992;28;20344;-47
2022/04/13 03:42:05;;;;;;;;;;;;;;;;;;5051858;28;19931;-48
2022/04/13 03:44:31;;;;;;;;;;;;;;;;;;5051795;28;19921;-48
2022/04/13 03:46:57;;;;;;;;;;;18.50;87.70;;;;;;5051788;28;19909;-49
2022/04/13 03:49:23;;;;;;;;;;;;;;;;;;5051830;28;19913;-48
2022/04/13 03:51:49;;;;;;;;;;;;;;;;;;5051922;28;19908;-49
2022/04/13 03:54:14;;;;;;;;;;;18.50;90.50;;;;;;5051710;28;19908;-48
2022/04/13 03:56:40;;;;;;;;;;;;;;;;;;5051811;28;19996;-48
2022/04/13 03:59:07;;;;;;;;;;;;;;;;;;5051673;28;19909;-49
2022/04/13 04:01:32;;;;;;;;;;;18.40;90.50;;;;;;5051531;28;19996;-49
2022/04/13 04:03:58;;;;;;;;;;;18.50;90.60;;;;;;5051659;28;20431;-49
2022/04/13 04:06:24;;;;;;;;;;;;;;;;;;5051659;28;20406;-48
2022/04/13 04:08:50;;;;;;;;;;;;;;;;;;5052405;28;19968;-49
2022/04/13 04:11:16;;;;;;;;;;;;;;;;;;5055320;28;20264;-48
2022/04/13 04:13:42;;;;;;;;;;;;;;;;;;5055216;28;19962;-47
2022/04/13 04:16:08;;;;;;;;;;;;;;;;;;5055115;28;19909;-47
2022/04/13 04:18:34;;;;;;;;;;;;;;;;;;5055107;28;19919;-48
2022/04/13 04:20:59;;;;;;;;;;;;;;;;;;5055276;28;19909;-47
2022/04/13 04:23:25;;;;;;;;;;;;;;;;;;5054877;28;19916;-48
2022/04/13 04:25:51;;;;;;;;;;;18.40;90.50;;;;;;5054931;28;19919;-46
2022/04/13 04:28:16;;;;;;;;;;;18.40;90.60;;;;;;5054851;28;19908;-48
2022/04/13 04:30:42;;;;;;;;;;;18.40;87.80;;;;;;5055223;28;19955;-48
2022/04/13 04:33:08;;;;;;;;;;;18.40;87.50;;;;;;5055012;28;19909;-49
2022/04/13 04:35:34;;;;;;;;;;;;;;;;;;5054733;28;19916;-47
2022/04/13 04:38:00;;;;;;;;;;;;;;;;;;5054593;28;19909;-50
2022/04/13 04:40:26;;;;;;;;;;;;;;;;;;5054639;28;19954;-49
2022/04/13 04:42:52;;;;;;;;;;;;;;;;;;5054612;28;19916;-49
2022/04/13 04:45:19;;;;;;;;;;;18.40;90.20;;;;;;5054564;28;20332;-48
2022/04/13 04:47:51;;;;;;;;;;;18.40;90.60;;;;;;5054943;28;19963;-48
2022/04/13 04:50:16;;;;;;;;;;;18.40;90.70;;;;;;5054459;28;19909;-48
2022/04/13 04:52:42;;;;;;;;;;;18.40;88.10;;;;;;5054465;28;19915;-48
2022/04/13 04:55:08;;;;;;;;;;;18.30;87.70;;;;;;5054428;28;19916;-49
2022/04/13 04:57:34;;;;;;;;;;;18.40;88.90;;;;;;5054351;28;19997;-49
2022/04/13 05:00:00;;;;;;;;;;;;;;;;;;5054567;28;19956;-48
2022/04/13 05:02:25;;;;;;;;;;;;;;;;;;5053966;28;19925;-48
2022/04/13 05:04:51;;;;;;;;;;;;;;;;;;5054515;28;19916;-48
2022/04/13 05:07:17;;;;;;;;;;;18.30;90.70;;;;;;5054211;28;19909;-47
2022/04/13 05:09:42;;;;;;;;;;;18.30;90.60;;;;;;5054216;28;19935;-47
2022/04/13 05:12:08;;;;;;;;;;;;;;;;;;5054095;28;19909;-48
2022/04/13 05:14:34;;;;;;;;;;;;;;;;;;5053975;28;19958;-47
2022/04/13 05:17:00;;;;;;;;;;;;;;;;;;5053924;28;20303;-47
2022/04/13 05:19:26;;;;;;;;;;;;;;;;;;5053665;28;19909;-47
2022/04/13 05:21:52;;;;;;;;;;;;;;;;;;5054247;28;19909;-52
2022/04/13 05:24:17;;;;;;;;;;;;;;;;;;5053832;28;19960;-48
2022/04/13 05:26:43;;;;;;;;;;;;;;;;;;5054047;28;19912;-47
2022/04/13 05:29:09;;;;;;;;;;;18.40;90.60;;;;;;5053800;28;19924;-49
2022/04/13 05:31:34;;;;;;;;;;;18.40;90.70;;;;;;5053667;28;19916;-48
2022/04/13 05:34:00;;;;;;;;;;;18.50;88.10;;;;;;5053497;28;19953;-51
2022/04/13 05:36:26;;;;;;;;;;;;;;;;;;5053489;28;19944;-50
2022/04/13 05:38:52;;;;;;;;;;;;;;;;;;5053687;28;20090;-48
2022/04/13 05:41:17;;;;;;;;;;;;;;;;;;5053462;28;19909;-49
2022/04/13 05:43:43;;;;;;;;;;;;;;;;;;5053321;28;20151;-47
2022/04/13 05:46:09;;;;;;;;;;;;;;;;;;5053240;28;19942;-48
2022/04/13 05:48:35;;;;;;;;;;;18.40;90.90;;;;;;5053188;28;20286;-48
2022/04/13 05:51:00;;;;;;;;;;;18.40;90.80;;;;;;5053184;28;20383;-48
2022/04/13 05:53:26;;;;;;;;;;;;;;;;;;5053143;28;19912;-48
2022/04/13 05:55:55;;;;;;;;;;;;;;;;;;5053348;28;20363;-48
2022/04/13 05:58:21;;;;;;;;;;;;;;;;;;5053155;28;19909;-47
2022/04/13 06:00:47;;;;;;;;;;;18.60;91.10;;;;;;5053287;28;19916;-49
2022/04/13 06:03:12;;;;;;;;;;;18.50;91.30;;;;;;5053099;28;19925;-51
2022/04/13 06:05:39;;;;;;;;;;;18.50;90.00;;;;;;5053329;28;19944;-50
2022/04/13 06:08:04;;;;;;;;;;;18.50;91.20;;;;;;5053580;28;20279;-49
2022/04/13 06:10:30;;;;;;;;;;;18.40;89.40;;;;;;5053186;28;19908;-49
2022/04/13 06:12:56;;;;;;;;;;;;;;;;;;5053173;28;19916;-49
2022/04/13 06:15:21;;;;;;;;;;;;;;;;;;5053137;28;19916;-48
2022/04/13 06:17:47;;;;;;;;;;;;;;;;;;5053069;28;19909;-48
2022/04/13 06:20:14;;;;;;;;;;;18.60;91.80;;;;;;5053029;28;20268;-47
2022/04/13 06:22:40;;;;;;;;;;;;;;;;;;5053290;28;19915;-47
2022/04/13 06:25:06;;;;;;;;;;;;;;;;;;5052935;28;19917;-49
2022/04/13 06:27:32;;;;;;;;;;;;;;;;;;5052940;28;20367;-50
2022/04/13 06:29:57;;;;;;;;;;;;;;;;;;5052945;28;19909;-50
2022/04/13 06:32:23;;;;;;;;;;;;;;;;;;5052240;28;19913;-52
2022/04/13 06:34:49;;;;;;;;;;;18.70;91.90;;;;;;5052820;28;19978;-52
2022/04/13 06:37:14;;;;;;;;;;;18.40;91.80;;;;;;5052876;28;19909;-52
2022/04/13 06:39:40;;;;;;;;;;;18.50;90.00;;;;;;5053034;28;19911;-53
2022/04/13 06:42:05;;;;;;;;;;;;;;;;;;5052779;28;19967;-51
2022/04/13 06:44:31;;;;;;;;;;;;;;;;;;5052722;28;20387;-50
2022/04/13 06:46:58;;;;;;;;;;;18.60;91.90;;;;;;5052716;28;19915;-50
2022/04/13 06:49:24;;;;;;;;;;;;;;;;;;5052699;28;20011;-51
2022/04/13 06:51:50;;;;;;;;;;;;;;;;;;5052616;28;19997;-50
2022/04/13 06:54:16;;;;;;;;;;;;;;;;;;5052661;28;20370;-50
2022/04/13 06:56:41;;;;;;;;;;;;;;;;;;5052583;28;19940;-53
2022/04/13 06:59:07;;;;;;;;;;;;;;;;;;5052585;28;19919;-49
2022/04/13 07:01:34;;;;;;;;;;;;;;;;;;5052257;28;19944;-49
2022/04/13 07:04:00;;;;;;;;;;;;;;;;;;5052390;28;19920;-51
2022/04/13 07:06:25;;;;;;;;;;;;;;;;;;5052706;28;19963;-49
2022/04/13 07:08:51;;;;;;;;;;;;;;;;;;5052407;28;19909;-50
2022/04/13 07:11:17;;;;;;;;;;;18.60;92.00;;;;;;5052411;28;19943;-49
2022/04/13 07:13:43;;;;;;;;;;;;;;;;;;5052503;28;20455;-46
2022/04/13 07:16:08;;;;;;;;;;;18.50;92.30;;;;;;5052458;28;19913;-46
2022/04/13 07:18:34;;;;;;;;;;;;;;;;;;5052541;28;20289;-47
2022/04/13 07:21:01;;;;;;;;;;;;;;;;;;5052380;28;19913;-46
2022/04/13 07:23:26;;;;;;;;;;;18.60;92.00;;;;;;5052603;28;19939;-46
2022/04/13 07:25:52;;;;;;;;;;;;;;;;;;5052409;28;20371;-46
2022/04/13 07:28:20;;;;;;;;;;;;;;;;;;5052555;28;19955;-46
2022/04/13 07:30:45;;;;;;;;;;;;;;;;;;5052583;28;19909;-46
2022/04/13 07:33:11;;;;;;;;;;;18.60;91.90;;;;;;5052323;28;19916;-50
2022/04/13 07:35:36;;;;;;;;;;;18.60;92.00;;;;;;5052331;28;20042;-49
2022/04/13 07:38:02;;;;;;;;;;;;;;;;;;5052132;28;19932;-51
2022/04/13 07:40:28;;;;;;;;;;;;;;;;;;5052146;28;19913;-51
2022/04/13 07:42:54;;;;;;;;;;;;;;;;;;5052600;28;19920;-50
2022/04/13 07:45:20;;;;;;;;;;;;;;;;;;5055945;28;19909;-49
2022/04/13 07:47:46;;;;;;;;;;;;;;;;;;5055962;28;19996;-50
2022/04/13 07:50:15;;;;;;;;;;;;;;;;;;5038037;28;19908;-51
2022/04/13 07:52:41;;;;;;;;;;;18.50;91.80;;;;;;5055895;28;20367;-51
2022/04/13 07:55:07;;;;;;;;;;;18.60;91.70;;;;;;5055737;28;19909;-51
2022/04/13 07:57:33;;;;;;;;;;;;;;;;;;5055984;28;19917;-49
2022/04/13 07:59:59;;;;;;;;;;;18.60;91.70;;;;;;5055701;28;20367;-50
2022/04/13 08:02:24;;;;;;;;;;;18.60;91.80;;;;;;5055401;28;19921;-50
2022/04/13 08:04:50;;;;;;;;;;;18.30;89.80;;;;;;5055589;28;19966;-50
2022/04/13 08:07:16;;;;;;;;;;;;;;;;;;5055588;28;19909;-50
2022/04/13 08:09:42;;;;;;;;;;;;;;;;;;5055928;28;19915;-46
2022/04/13 08:12:08;;;;;;;;;;;;;;;;;;5055525;28;19916;-46
2022/04/13 08:14:33;;;;;;;;;;;;;;;;;;5055483;28;19912;-46
2022/04/13 08:17:03;;;;;;;;;;;18.60;91.70;;;;;;5055431;28;19915;-45
2022/04/13 08:19:29;;;;;;;;;;;18.70;91.80;;;;;;5055598;28;19916;-46
2022/04/13 08:21:55;;;;;;;;;;;;;;;;;;5055313;28;19916;-46
2022/04/13 08:24:21;;;;;;;;;;;18.70;91.80;;;;;;5055199;28;19920;-46
2022/04/13 08:26:46;;;;;;;;;;;18.60;91.70;;;;;;5055236;28;20283;-47
2022/04/13 08:29:12;;;;;;;;;;;;;;;;;;5055218;28;19908;-46
2022/04/13 08:31:38;;;;;;;;;;;;;;;;;;5055138;28;19954;-46
2022/04/13 08:34:04;;;;;;;;;;;;;;;;;;5054848;28;20011;-47
2022/04/13 08:36:30;;;;;;;;;;;;;;;;;;5055086;28;19923;-49
2022/04/13 08:38:56;;;;;;;;;;;;;;;;;;5054805;28;19909;-49
2022/04/13 08:41:21;;;;;;;;;;;;;;;;;;5055003;28;19908;-48
2022/04/13 08:43:58;;;;;;;;;;;18.60;91.70;;;;;;5054801;28;19917;-48
2022/04/13 08:46:24;;;;;;;;;;;;;;;;;;5054762;28;20394;-48
2022/04/13 08:48:50;;;;;;;;;;;;;;;;;;5054872;28;20012;-50
2022/04/13 08:51:17;;;;;;;;;;;;;;;;;;5054699;28;20283;-48
2022/04/13 08:53:48;;;;;;;;;;;18.70;91.70;;;;;;5054662;28;19954;-49
2022/04/13 08:56:13;;;;;;;;;;;;;;;;;;5053954;28;19913;-48
2022/04/13 08:58:44;;;;;;;;;;;18.80;92.20;;;;;;5054881;28;19934;-50
2022/04/13 09:01:10;;;;;;;;;;;;;;;;;;5054558;28;20390;-49
2022/04/13 09:03:36;;;;;;;;;;;;;;;;;;5033177;28;20023;-47
2022/04/13 09:06:01;;;;;;;;;;;;;;;;;;5034664;28;19909;-49
2022/04/13 09:08:29;;;;;;;;;;;;;;;;;;5034514;28;20198;-50
2022/04/13 09:10:55;;;;;;;;;;;;;;;;;;5034451;28;19909;-48
2022/04/13 09:13:21;;;;;;;;;;;19.00;92.50;;;;;;5034348;28;20008;-50
2022/04/13 09:15:47;;;;;;;;;;;19.00;92.30;;;;;;5034411;28;20413;-48
2022/04/13 09:18:13;;;;;;;;;;;;;;;;;;5034655;28;20004;-49
2022/04/13 09:20:39;;;;;;;;;;;19.00;92.30;;;;;;5034241;28;20339;-48
2022/04/13 09:23:05;;;;;;;;;;;;;;;;;;5034545;28;20283;-48
2022/04/13 09:25:31;;;;;;;;;;;18.90;92.40;;;;;;5033961;28;19913;-48
2022/04/13 09:27:57;;;;;;;;;;;19.00;92.40;;;;;;5034189;28;20272;-48
2022/04/13 09:30:23;;;;;;;;;;;19.10;92.60;;;;;;5034092;28;19944;-48
2022/04/13 09:32:49;;;;;;;;;;;19.00;92.70;;;;;;5034140;28;20339;-48
2022/04/13 09:35:14;;;;;;;;;;;19.00;92.30;;;;;;5034316;28;19913;-49
2022/04/13 09:37:40;;;;;;;;;;;;;;;;;;5033950;28;19909;-49
2022/04/13 09:40:06;;;;;;;;;;;;;;;;;;5034225;28;20032;-50
2022/04/13 09:42:32;;;;;;;;;;;;;;;;;;5033947;28;19917;-49
2022/04/13 09:44:58;;;;;;;;;;;;;;;;;;5033693;28;19927;-52
2022/04/13 09:47:24;;;;;;;;;;;;;;;;;;5033997;28;20442;-50
2022/04/13 09:49:55;;;;;;;;;;;;;;;;;;5034027;28;20087;-50
2022/04/13 09:52:21;;;;;;;;;;;;;;;;;;5033961;28;19913;-52
2022/04/13 09:54:47;;;;;;;;;;;19.10;93.40;;;;;;5033632;28;20402;-50
2022/04/13 09:57:22;;;;;;;;;;;19.00;93.50;;;;;;5033877;28;19909;-51
2022/04/13 09:59:48;;;;;;;;;;;;;;;;;;5033864;28;19909;-48
2022/04/13 10:02:14;;;;;;;;;;;;;;;;;;5039755;28;19927;-49
2022/04/13 10:04:40;;;;;;;;;;;;;;;;;;5053116;28;19979;-46
2022/04/13 10:07:06;;;;;;;;;;;;;;;;;;5052279;28;20393;-46
2022/04/13 10:09:31;;;;;;;;;;;;;;;;;;5053281;28;19916;-47
2022/04/13 10:12:03;;;;;;;;;;;18.90;93.40;;;;;;5053240;28;19916;-47
2022/04/13 10:14:30;;;;;;;;;;;18.90;93.80;;;;;;5053220;28;19939;-47
2022/04/13 10:16:56;;;;;;;;;;;;;;;;;;5053134;28;19909;-50
2022/04/13 10:19:22;;;;;;;;;;;;;;;;;;5053206;28;20509;-46
2022/04/13 10:21:48;;;;;;;;;;;;;;;;;;5053092;28;19944;-48
2022/04/13 10:24:14;;;;;;;;;;;;;;;;;;5035107;28;20426;-47
2022/04/13 10:26:42;;;;;;;;;;;;;;;;;;5052952;28;20163;-46
2022/04/13 10:29:08;;;;;;;;;;;;;;;;;;5052891;28;20002;-47
2022/04/13 10:31:34;;;;;;;;;;;;;;;;;;5052738;28;20348;-47
2022/04/13 10:34:00;;;;;;;;;;;;;;;;;;5052703;28;19908;-46
2022/04/13 10:36:26;;;;;;;;;;;;;;;;;;5052794;28;20034;-47
2022/04/13 10:38:53;;;;;;;;;;;;;;;;;;5052690;28;19908;-46
2022/04/13 10:41:20;;;;;;;;;;;18.90;93.90;;;;;;5052671;28;19909;-46
2022/04/13 10:43:46;;;;;;;;;;;;;;;;;;5052536;28;19921;-47
2022/04/13 10:46:14;;;;;;;;;;;;;;;;;;5052548;28;19954;-47
2022/04/13 10:48:40;;;;;;;;;;;;;;;;;;5052722;28;19916;-46
2022/04/13 10:51:06;;;;;;;;;;;;;;;;;;5052766;28;19992;-47
2022/04/13 10:53:32;;;;;;;;;;;;;;;;;;5052519;28;19916;-46
2022/04/13 10:55:58;;;;;;;;;;;;;;;;;;5052817;28;20037;-46
2022/04/13 10:58:25;;;;;;;;;;;;;;;;;;5052427;28;20290;-48
2022/04/13 11:00:55;;;;;;;;;;;18.80;94.00;;;;;;5052399;28;19920;-48
2022/04/13 11:03:22;;;;;;;;;;;18.80;94.00;;;;;;5052087;28;20339;-47
2022/04/13 11:05:48;;;;;;;;;;;18.70;93.90;;;;;;5052657;28;19935;-47
2022/04/13 11:08:14;;;;;;;;;;;;;;;;;;5052359;28;20430;-47
2022/04/13 11:10:41;;;;;;;;;;;;;;;;;;5052199;28;20109;-50
2022/04/13 11:13:06;;;;;;;;;;;18.80;94.60;;;;;;5052633;28;19909;-49
2022/04/13 11:15:32;;;;;;;;;;;;;;;;;;5052429;28;19909;-49
2022/04/13 11:17:58;;;;;;;;;;;;;;;;;;5053153;28;20371;-46
2022/04/13 11:20:24;;;;;;;;;;;;;;;;;;5056345;28;19913;-45
2022/04/13 11:22:49;;;;;;;;;;;;;;;;;;5056370;28;19967;-47
2022/04/13 11:25:15;;;;;;;;;;;;;;;;;;5056259;28;20385;-47
2022/04/13 11:27:41;;;;;;;;;;;;;;;;;;5056262;28;19909;-46
2022/04/13 11:30:07;;;;;;;;;;;;;;;;;;5056125;28;20015;-46
2022/04/13 11:32:33;;;;;;;;;;;19.30;93.90;;;;;;5056344;28;20367;-47
2022/04/13 11:34:59;;;;;;;;;;;19.00;94.10;;;;;;5056386;28;19909;-46
2022/04/13 11:37:26;;;;;;;;;;;18.90;94.00;;;;;;5056192;28;19909;-47
2022/04/13 11:39:52;;;;;;;;;;;;;;;;;;5056225;28;20000;-46
2022/04/13 11:42:18;;;;;;;;;;;;;;;;;;5056364;28;20469;-46
2022/04/13 11:44:44;;;;;;;;;;;;;;;;;;5055901;28;19921;-47
2022/04/13 11:47:09;;;;;;;;;;;;;;;;;;5055950;28;19909;-47
2022/04/13 11:49:35;;;;;;;;;;;19.10;94.00;;;;;;5055925;28;19909;-47
2022/04/13 11:52:20;;;;;;;;;;;19.10;93.90;;;;;;5055889;28;19995;-50
2022/04/13 11:54:46;;;;;;;;;;;;;;;;;;5055655;28;19909;-50
2022/04/13 11:57:12;;;;;;;;;;;;;;;;;;5055963;28;19909;-50
2022/04/13 11:59:38;;;;;;;;;;;;;;;;;;5055791;28;19931;-49
2022/04/13 12:02:04;;;;;;;;;;;;;;;;;;5055404;28;19963;-48
2022/04/13 12:04:30;;;;;;;;;;;;;;;;;;5055630;28;19924;-50
2022/04/13 12:06:55;;;;;;;;;;;;;;;;;;5055665;28;19909;-51
2022/04/13 12:09:21;;;;;;;;;;;19.20;93.30;;;;;;5055594;28;19909;-48
2022/04/13 12:11:47;;;;;;;;;;;19.20;93.70;;;;;;5055719;28;19916;-48
2022/04/13 12:14:26;;;;;;;;;;;19.10;93.80;;;;;;5055378;28;19916;-48
2022/04/13 12:16:52;;;;;;;;;;;;;;;;;;5055356;28;20379;-48
2022/04/13 12:19:18;;;;;;;;;;;;;;;;;;5055292;28;19955;-47
2022/04/13 12:21:44;;;;;;;;;;;;;;;;;;5055294;28;20418;-47
2022/04/13 12:24:10;;;;;;;;;;;;;;;;;;5055115;28;19971;-48
2022/04/13 12:26:35;;;;;;;;;;;19.30;93.60;;;;;;5055337;28;19963;-46
2022/04/13 12:29:01;;;;;;;;;;;;;;;;;;5054776;28;20275;-47
2022/04/13 12:31:42;;;;;;;;;;;;;;;;;;5054455;28;19956;-46
2022/04/13 12:34:08;;;;;;;;;;;;;;;;;;5055059;28;20383;-46
2022/04/13 12:36:34;;;;;;;;;;;;;;;;;;5055060;28;19955;-47
2022/04/13 12:39:00;;;;;;;;;;;;;;;;;;5054989;28;19909;-46
2022/04/13 12:41:28;;;;;;;;;;;19.30;93.50;;;;;;5054906;28;20166;-47
2022/04/13 12:43:56;;;;;;;;;;;;;;;;;;5054834;28;19924;-47
2022/04/13 12:46:22;;;;;;;;;;;;;;;;;;5054780;28;19913;-52
2022/04/13 12:48:48;;;;;;;;;;;;;;;;;;5054678;28;20307;-49
2022/04/13 12:51:13;;;;;;;;;;;19.40;93.30;;;;;;5054594;28;19913;-49
2022/04/13 12:53:39;;;;;;;;;;;19.40;93.40;;;;;;5054584;28;20417;-49
2022/04/13 12:56:05;;;;;;;;;;;;;;;;;;5054552;28;19932;-48
2022/04/13 12:58:35;;;;;;;;;;;19.50;93.30;;;;;;5054484;28;20367;-49
2022/04/13 13:01:01;;;;;;;;;;;;;;;;;;5054580;28;19908;-49
2022/04/13 13:03:27;;;;;;;;;;;;;;;;;;5054205;28;19931;-49
2022/04/13 13:05:52;;;;;;;;;;;19.60;93.20;;;;;;5054500;28;19908;-48
2022/04/13 13:08:18;;;;;;;;;;;19.50;92.00;;;;;;5054429;28;19935;-49
2022/04/13 13:10:45;;;;;;;;;;;;;;;;;;5054661;28;19919;-50
2022/04/13 13:13:17;;;;;;;;;;;19.70;93.10;;;;;;5054481;28;19956;-50
2022/04/13 13:15:43;;;;;;;;;;;19.60;93.00;;;;;;5054404;28;19920;-51
2022/04/13 13:18:08;;;;;;;;;;;19.70;93.10;;;;;;5054257;28;20296;-53
2022/04/13 13:20:35;;;;;;;;;;;;;;;;;;5054156;28;19909;-52
2022/04/13 13:23:06;;;;;;;;;;;19.80;92.90;;;;;;5054520;28;19909;-50
2022/04/13 13:25:33;;;;;;;;;;;;;;;;;;5054002;28;19946;-51
2022/04/13 13:28:00;;;;;;;;;;;20.00;92.80;;;;;;5054333;28;19909;-50
2022/04/13 13:30:27;;;;;;;;;;;;;;;;;;5053978;28;19909;-50
2022/04/13 13:32:53;;;;;;;;;;;;;;;;;;5053984;28;19909;-51
2022/04/13 13:35:20;;;;;;;;;;;20.10;92.60;;;;;;5053889;28;19909;-50
2022/04/13 13:37:47;;;;;;;;;;;;;;;;;;5053970;28;19913;-52
2022/04/13 13:40:35;;;;;;;;;;;20.20;92.60;;;;;;5054128;28;19908;-48
2022/04/13 13:43:03;;;;;;;;;;;20.20;92.40;;;;;;5053851;28;19909;-47
2022/04/13 13:45:30;;;;;;;;;;;20.30;92.40;;;;;;5053685;28;20069;-48
2022/04/13 13:47:58;;;;;;;;;;;20.20;92.30;;;;;;5053269;28;20437;-48
2022/04/13 13:50:23;;;;;;;;;;;20.40;92.40;;;;;;5053673;28;19913;-47
2022/04/13 13:52:49;;;;;;;;;;;20.40;92.20;;;;;;5053557;28;19908;-48
2022/04/13 13:55:15;;;;;;;;;;;;;;;;;;5053405;28;19909;-48
2022/04/13 13:57:41;;;;;;;;;;;;;;;;;;5053345;28;20434;-48
2022/04/13 14:00:08;;;;;;;;;;;20.60;92.00;;;;;;5053358;28;19955;-47
2022/04/13 14:02:34;;;;;;;;;;;;;;;;;;5052948;28;19921;-46
2022/04/13 14:05:00;;;;;;;;;;;;;;;;;;5053101;28;19975;-48
2022/04/13 14:07:26;;;;;;;;;;;;;;;;;;5053167;28;19916;-47
2022/04/13 14:09:52;;;;;;;;;;;;;;;;;;5053136;28;19909;-48
2022/04/13 14:12:18;;;;;;;;;;;;;;;;;;5053273;28;19909;-47
2022/04/13 14:14:44;;;;;;;;;;;;;;;;;;5052946;28;20272;-47
2022/04/13 14:17:10;;;;;;;;;;;;;;;;;;5053101;28;19909;-46
2022/04/13 14:19:36;;;;;;;;;;;;;;;;;;5053049;28;20389;-48
2022/04/13 14:22:02;;;;;;;;;;;;;;;;;;5053141;28;19916;-48
2022/04/13 14:24:27;;;;;;;;;;;20.80;91.60;;;;;;5053230;28;20008;-48
2022/04/13 14:26:52;;;;;;;;;;;20.80;91.70;;;;;;5053063;28;20028;-48
2022/04/13 14:29:18;;;;;;;;;;;20.70;89.20;;;;;;5052947;28;19909;-47
2022/04/13 14:31:44;;;;;;;;;;;;;;;;;;5052932;28;19919;-47
2022/04/13 14:34:10;;;;;;;;;;;;;;;;;;5053124;28;19963;-48
2022/04/13 14:36:37;;;;;;;;;;;20.70;91.40;;;;;;5053232;28;19912;-49
2022/04/13 14:39:03;;;;;;;;;;;;;;;;;;5053024;28;19909;-51
2022/04/13 14:41:28;;;;;;;;;;;21.00;90.40;;;;;;5052598;28;19954;-50
2022/04/13 14:43:54;;;;;;;;;;;;;;;;;;5052532;28;19921;-52
2022/04/13 14:46:20;;;;;;;;;;;;;;;;;;5052495;28;19909;-51
2022/04/13 14:48:45;;;;;;;;;;;21.10;91.10;;;;;;5052523;28;19909;-50
2022/04/13 14:51:11;;;;;;;;;;;21.10;91.20;;;;;;5052533;28;20261;-50
2022/04/13 14:53:36;;;;;;;;;;;21.10;91.20;;;;;;5052231;28;19947;-47
2022/04/13 14:56:02;;;;;;;;;;;;;;;;;;5052436;28;19909;-48
2022/04/13 14:58:28;;;;;;;;;;;;;;;;;;5052354;28;19909;-47
2022/04/13 15:00:54;;;;;;;;;;;;;;;;;;5052347;28;19913;-48
2022/04/13 15:03:20;;;;;;;;;;;;;;;;;;5051989;28;19920;-48
2022/04/13 15:05:46;;;;;;;;;;;;;;;;;;5052298;28;19912;-48
2022/04/13 15:08:12;;;;;;;;;;;21.20;89.00;;;;;;5052581;28;19912;-48
2022/04/13 15:10:38;;;;;;;;;;;;;;;;;;5052274;28;19912;-47
2022/04/13 15:13:04;;;;;;;;;;;;;;;;;;5052278;28;20325;-47
2022/04/13 15:15:30;;;;;;;;;;;;;;;;;;5052177;28;19909;-47
2022/04/13 15:17:55;;;;;;;;;;;21.20;90.80;;;;;;5052149;28;19959;-48
2022/04/13 15:20:21;;;;;;;;;;;21.20;90.70;;;;;;5034246;28;19916;-46
2022/04/13 15:22:47;;;;;;;;;;;21.20;90.80;;;;;;5052324;28;19909;-48
2022/04/13 15:25:12;;;;;;;;;;;21.20;90.80;;;;;;5052153;28;19917;-48
2022/04/13 15:27:41;;;;;;;;;;;21.10;88.00;;;;;;5052284;28;19909;-47
2022/04/13 15:30:10;;;;;;;;;;;21.10;90.60;;;;;;5052248;28;19909;-47
2022/04/13 15:32:36;;;;;;;;;;;;;;;;;;5052146;28;20322;-46
2022/04/13 15:35:02;;;;;;;;;;;;;;;;;;5052202;28;19955;-48
2022/04/13 15:37:29;;;;;;;;;;;;;;;;;;5052151;28;19909;-47
2022/04/13 15:39:55;;;;;;;;;;;20.90;90.60;;;;;;5052080;28;20287;-47